Delta, CO

8:23 AM MST on February 12, 2016 (GMT -0700)
Garnet Mesa | | Change Station
CLOSE
Current Station
Personal Weather Station
Location: Delta, CO
Elevation: 5056 ft
Nearby Weather Stations

Elev 5056 ft 38.74 °N, 108.06 °W | Updated 25 seconds ago

Clear
Clear
26.2 °F
Feels Like 26 °F
N
0.0
Wind Variable Wind from ESE
Gusts 0.0 mph

Today
High -- | Low -- °F
--% Chance of Precip.
Yesterday
High -- | Low -- °F
Precip. -- in
Pressure 30.47 in
Visibility 10.0 miles
Clouds Clear
Windchill 26 °F
Dew Point 20 °F
Humidity 77%
Rainfall 0.00 in
Snow Depth Not available.
7:07 AM 5:46 PM
Waxing Crescent, 21% visible
METAR KAJZ 121515Z AUTO 00000KT 10SM CLR M01/M04 A3047 RMK AO2 T10101040
Pressure 30.47 in
Visibility 10.0 miles
Clouds Clear
Windchill 26 °F
Dew Point 20 °F
Humidity 77%
Rainfall 0.00 in
Snow Depth Not available.
7:07 AM 5:46 PM
Waxing Crescent, 21% visible
METAR KAJZ 121515Z AUTO 00000KT 10SM CLR M01/M04 A3047 RMK AO2 T10101040

10-Day Weather Forecast

Almanac

Astronomy

Feb. 12, 2016 Rise Set
Actual Time
Civil Twilight
Nautical Twilight
Astronomical Twilight
Moon
Length of Visible Light
Length of Day
Tomorrow will be .
, % of the Moon is Illuminated

Today's Extremes

State Highs State Lows

Community

WunderPhotos

Upload Photos

1,892,329 photos uploaded!

WunderBlog® & News

Nearby

Air Quality

  Air Quality AQ Index Pollutant
Not available.

Snow Depth

Station Depth Elevation

Earthquake Activity

City Distance Mag. Time & Date
Minimum magnitude displayed is 2.5.

Coastal Water Temperatures

Place Temperature

Stations

Nearby Weather Stations

Station Location Temp. Windchill Dew Point Humidity Wind Precip. Elev Updated Type
                   

Watches & Warnings

There are currently no watches in effect.